Midway Park, NC (28544)

7:18 PM EST on March 01, 2015 (GMT -0500)
Western Blvd | Change Station
CLOSE
Current Station
Personal Weather Station
Location: Jacksonville, NC
Elevation: 33 ft
Nearby Weather Stations

Elev 33 ft 34.76 °N, 77.38 °W | Updated 1 minute ago

Rain
Rain
45.2 °F
Feels Like 45 °F
N
3.0
Wind Variable Wind from North
Gusts 6.0 mph

Today
High -- | Low -- °F
--% Chance of Precip.
Yesterday
High -- | Low -- °F
Precip. -- in
6:38 AM 6:04 PM
Waxing Gibbous, 88% visible
Pressure 30.37 in
Visibility 3.0 miles
Clouds Scattered Clouds 900 ft
Mostly Cloudy 1500 ft
Overcast 3700 ft
Windchill 45 °F
Dew Point 43 °F
Humidity 93%
Rainfall -999.00 in
Snow Depth Not available.
UV 0.0 out of 12
Pollen 3.70 out of 12
Air Quality Not available.
Flu Activity Not available.
SPECI KNCA 020009Z AUTO 33007KT 3SM -RA BR SCT009 BKN015 OVC037 07/06 A3037 RMK AO2 P0002 T00670056 $

More Conditions Fewer Conditions

Pressure 30.37 in
Visibility 3.0 miles
Clouds Scattered Clouds 900 ft
Mostly Cloudy 1500 ft
Overcast 3700 ft
Windchill 45 °F
Dew Point 43 °F
Humidity 93%
Rainfall -999.00 in
Snow Depth Not available.
UV 0.0 out of 12
Pollen 3.70 out of 12
Air Quality Not available.
Flu Activity Not available.
SPECI KNCA 020009Z AUTO 33007KT 3SM -RA BR SCT009 BKN015 OVC037 07/06 A3037 RMK AO2 P0002 T00670056 $

More Conditions Fewer Conditions

10-Day Weather Forecast

Almanac

Astronomy

Mar. 01, 2015 Rise Set
Actual Time
Civil Twilight
Nautical Twilight
Astronomical Twilight
Moon
Length of Visible Light
Length of Day
Tomorrow will be .
, % of the Moon is Illuminated

Today's Extremes

State Highs State Lows

Community

WunderPhotos

Upload Photos

1,801,642 photos uploaded!

WunderBlogs® & News

Nearby

Air Quality

  Air Quality AQ Index Pollutant
Not available.

Snow Depth

Station Depth Elevation

Earthquake Activity

City Distance Mag. Time & Date
Minimum magnitude displayed is 2.5.

Coastal Water Temperatures

Place Temperature

Nearby Weather Stations